sensor_id;sensor_type;location;lat;lon;timestamp;P1;durP1;ratioP1;P2;durP2;ratioP2
75535;SDS011;64119;52.070;20.804;2023-05-10T00:01:05;7.30;;;5.00;;
75535;SDS011;64119;52.070;20.804;2023-05-10T00:03:33;5.90;;;4.60;;
75535;SDS011;64119;52.070;20.804;2023-05-10T00:06:01;7.10;;;4.30;;
75535;SDS011;64119;52.070;20.804;2023-05-10T00:08:29;8.70;;;4.70;;
75535;SDS011;64119;52.070;20.804;2023-05-10T00:10:57;9.30;;;4.80;;
75535;SDS011;64119;52.070;20.804;2023-05-10T00:13:24;8.80;;;4.60;;
75535;SDS011;64119;52.070;20.804;2023-05-10T00:15:52;9.80;;;3.60;;
75535;SDS011;64119;52.070;20.804;2023-05-10T00:18:20;7.90;;;4.10;;
75535;SDS011;64119;52.070;20.804;2023-05-10T00:20:48;5.90;;;3.50;;
75535;SDS011;64119;52.070;20.804;2023-05-10T00:23:16;7.50;;;4.00;;
75535;SDS011;64119;52.070;20.804;2023-05-10T00:25:44;7.20;;;3.40;;
75535;SDS011;64119;52.070;20.804;2023-05-10T00:28:12;6.90;;;3.60;;
75535;SDS011;64119;52.070;20.804;2023-05-10T00:30:39;5.40;;;2.80;;
75535;SDS011;64119;52.070;20.804;2023-05-10T00:33:07;6.00;;;3.20;;
75535;SDS011;64119;52.070;20.804;2023-05-10T00:35:35;7.00;;;3.60;;
75535;SDS011;64119;52.070;20.804;2023-05-10T00:38:03;6.20;;;3.60;;
75535;SDS011;64119;52.070;20.804;2023-05-10T00:40:31;6.10;;;3.40;;
75535;SDS011;64119;52.070;20.804;2023-05-10T00:43:02;7.30;;;3.80;;
75535;SDS011;64119;52.070;20.804;2023-05-10T00:45:31;7.90;;;3.70;;
75535;SDS011;64119;52.070;20.804;2023-05-10T00:48:03;6.90;;;3.80;;
75535;SDS011;64119;52.070;20.804;2023-05-10T00:50:32;7.70;;;4.90;;
75535;SDS011;64119;52.070;20.804;2023-05-10T00:53:00;6.00;;;4.10;;
75535;SDS011;64119;52.070;20.804;2023-05-10T00:55:29;8.40;;;4.40;;
75535;SDS011;64119;52.070;20.804;2023-05-10T00:57:58;7.50;;;3.80;;
75535;SDS011;64119;52.070;20.804;2023-05-10T01:00:26;6.80;;;3.70;;
75535;SDS011;64119;52.070;20.804;2023-05-10T01:02:54;6.10;;;3.50;;
75535;SDS011;64119;52.070;20.804;2023-05-10T01:05:22;6.60;;;3.60;;
75535;SDS011;64119;52.070;20.804;2023-05-10T01:07:50;6.70;;;3.40;;
75535;SDS011;64119;52.070;20.804;2023-05-10T01:10:18;7.00;;;3.30;;
75535;SDS011;64119;52.070;20.804;2023-05-10T01:12:46;5.80;;;4.00;;
75535;SDS011;64119;52.070;20.804;2023-05-10T01:15:15;7.10;;;4.00;;
75535;SDS011;64119;52.070;20.804;2023-05-10T01:17:45;6.40;;;3.70;;
75535;SDS011;64119;52.070;20.804;2023-05-10T01:20:15;6.40;;;4.10;;
75535;SDS011;64119;52.070;20.804;2023-05-10T01:34:01;7.00;;;3.10;;
75535;SDS011;64119;52.070;20.804;2023-05-10T01:36:43;6.50;;;4.00;;
75535;SDS011;64119;52.070;20.804;2023-05-10T01:47:31;7.20;;;3.70;;
75535;SDS011;64119;52.070;20.804;2023-05-10T01:50:22;6.00;;;3.50;;
75535;SDS011;64119;52.070;20.804;2023-05-10T01:52:56;7.20;;;3.50;;
75535;SDS011;64119;52.070;20.804;2023-05-10T01:55:28;8.50;;;3.90;;
75535;SDS011;64119;52.070;20.804;2023-05-10T01:58:06;6.20;;;3.60;;
75535;SDS011;64119;52.070;20.804;2023-05-10T02:00:40;5.20;;;2.80;;
75535;SDS011;64119;52.070;20.804;2023-05-10T02:03:12;4.60;;;3.10;;
75535;SDS011;64119;52.070;20.804;2023-05-10T02:05:43;5.80;;;3.70;;
75535;SDS011;64119;52.070;20.804;2023-05-10T02:08:13;5.60;;;3.50;;
75535;SDS011;64119;52.070;20.804;2023-05-10T02:13:12;5.90;;;3.20;;
75535;SDS011;64119;52.070;20.804;2023-05-10T02:15:41;5.30;;;3.50;;
75535;SDS011;64119;52.070;20.804;2023-05-10T02:18:11;5.00;;;3.00;;
75535;SDS011;64119;52.070;20.804;2023-05-10T02:20:41;6.20;;;3.60;;
75535;SDS011;64119;52.070;20.804;2023-05-10T02:23:10;10.60;;;4.20;;
75535;SDS011;64119;52.070;20.804;2023-05-10T02:25:38;6.20;;;3.30;;
75535;SDS011;64119;52.070;20.804;2023-05-10T02:28:09;6.00;;;3.30;;
75535;SDS011;64119;52.070;20.804;2023-05-10T02:30:39;4.90;;;3.10;;
75535;SDS011;64119;52.070;20.804;2023-05-10T02:33:07;6.60;;;3.40;;
75535;SDS011;64119;52.070;20.804;2023-05-10T02:35:36;7.00;;;3.70;;
75535;SDS011;64119;52.070;20.804;2023-05-10T02:38:08;6.10;;;3.20;;
75535;SDS011;64119;52.070;20.804;2023-05-10T02:40:39;6.80;;;4.00;;
75535;SDS011;64119;52.070;20.804;2023-05-10T02:45:39;5.50;;;2.80;;
75535;SDS011;64119;52.070;20.804;2023-05-10T02:48:09;8.10;;;3.70;;
75535;SDS011;64119;52.070;20.804;2023-05-10T02:50:37;6.20;;;3.40;;
75535;SDS011;64119;52.070;20.804;2023-05-10T02:53:11;11.50;;;4.10;;
75535;SDS011;64119;52.070;20.804;2023-05-10T02:55:48;5.30;;;3.40;;
75535;SDS011;64119;52.070;20.804;2023-05-10T02:58:19;9.10;;;4.30;;
75535;SDS011;64119;52.070;20.804;2023-05-10T03:00:47;5.90;;;3.10;;
75535;SDS011;64119;52.070;20.804;2023-05-10T03:03:15;7.00;;;3.90;;
75535;SDS011;64119;52.070;20.804;2023-05-10T03:05:42;6.10;;;3.10;;
75535;SDS011;64119;52.070;20.804;2023-05-10T03:08:10;5.30;;;2.70;;
75535;SDS011;64119;52.070;20.804;2023-05-10T03:10:41;9.50;;;3.70;;
75535;SDS011;64119;52.070;20.804;2023-05-10T03:16:08;6.60;;;4.20;;
75535;SDS011;64119;52.070;20.804;2023-05-10T03:24:09;5.20;;;2.80;;
75535;SDS011;64119;52.070;20.804;2023-05-10T03:26:40;6.30;;;3.30;;
75535;SDS011;64119;52.070;20.804;2023-05-10T03:29:16;5.30;;;2.90;;
75535;SDS011;64119;52.070;20.804;2023-05-10T03:31:44;7.10;;;3.70;;
75535;SDS011;64119;52.070;20.804;2023-05-10T03:34:14;6.40;;;3.90;;
75535;SDS011;64119;52.070;20.804;2023-05-10T03:36:41;6.20;;;3.40;;
75535;SDS011;64119;52.070;20.804;2023-05-10T03:39:09;6.40;;;3.10;;
75535;SDS011;64119;52.070;20.804;2023-05-10T03:41:37;5.10;;;3.10;;
75535;SDS011;64119;52.070;20.804;2023-05-10T03:44:05;5.20;;;2.80;;
75535;SDS011;64119;52.070;20.804;2023-05-10T03:46:33;4.40;;;2.70;;
75535;SDS011;64119;52.070;20.804;2023-05-10T03:49:02;5.50;;;2.80;;
75535;SDS011;64119;52.070;20.804;2023-05-10T03:51:30;5.20;;;3.30;;
75535;SDS011;64119;52.070;20.804;2023-05-10T03:53:58;7.60;;;3.20;;
75535;SDS011;64119;52.070;20.804;2023-05-10T03:56:26;5.10;;;2.80;;
75535;SDS011;64119;52.070;20.804;2023-05-10T03:58:54;4.40;;;2.60;;
75535;SDS011;64119;52.070;20.804;2023-05-10T04:01:22;4.30;;;2.70;;
75535;SDS011;64119;52.070;20.804;2023-05-10T04:03:50;8.90;;;3.40;;
75535;SDS011;64119;52.070;20.804;2023-05-10T04:06:17;7.50;;;3.60;;
75535;SDS011;64119;52.070;20.804;2023-05-10T04:08:45;4.10;;;2.90;;
75535;SDS011;64119;52.070;20.804;2023-05-10T04:11:13;3.70;;;2.20;;
75535;SDS011;64119;52.070;20.804;2023-05-10T04:13:41;4.30;;;2.40;;
75535;SDS011;64119;52.070;20.804;2023-05-10T04:16:10;7.80;;;3.90;;
75535;SDS011;64119;52.070;20.804;2023-05-10T04:18:38;7.00;;;3.50;;
75535;SDS011;64119;52.070;20.804;2023-05-10T04:21:12;7.20;;;3.40;;
75535;SDS011;64119;52.070;20.804;2023-05-10T04:23:41;6.50;;;3.50;;
75535;SDS011;64119;52.070;20.804;2023-05-10T04:26:08;6.10;;;3.10;;
75535;SDS011;64119;52.070;20.804;2023-05-10T04:28:36;6.90;;;3.10;;
75535;SDS011;64119;52.070;20.804;2023-05-10T04:31:05;5.60;;;3.30;;
75535;SDS011;64119;52.070;20.804;2023-05-10T04:33:34;6.00;;;2.50;;
75535;SDS011;64119;52.070;20.804;2023-05-10T04:36:03;4.90;;;2.80;;
75535;SDS011;64119;52.070;20.804;2023-05-10T04:38:32;6.70;;;3.00;;
75535;SDS011;64119;52.070;20.804;2023-05-10T04:41:09;4.70;;;2.70;;
75535;SDS011;64119;52.070;20.804;2023-05-10T04:43:37;5.40;;;2.80;;
75535;SDS011;64119;52.070;20.804;2023-05-10T04:46:06;5.20;;;3.00;;
75535;SDS011;64119;52.070;20.804;2023-05-10T04:48:36;6.10;;;3.20;;
75535;SDS011;64119;52.070;20.804;2023-05-10T04:51:04;5.90;;;3.20;;
75535;SDS011;64119;52.070;20.804;2023-05-10T04:53:33;7.60;;;3.50;;
75535;SDS011;64119;52.070;20.804;2023-05-10T04:56:01;3.60;;;2.10;;
75535;SDS011;64119;52.070;20.804;2023-05-10T04:58:29;5.30;;;2.90;;
75535;SDS011;64119;52.070;20.804;2023-05-10T05:00:57;4.60;;;2.80;;
75535;SDS011;64119;52.070;20.804;2023-05-10T05:03:31;8.60;;;3.30;;
75535;SDS011;64119;52.070;20.804;2023-05-10T05:06:00;3.80;;;2.20;;
75535;SDS011;64119;52.070;20.804;2023-05-10T05:08:27;4.50;;;2.60;;
75535;SDS011;64119;52.070;20.804;2023-05-10T05:10:55;5.10;;;2.50;;
75535;SDS011;64119;52.070;20.804;2023-05-10T05:13:23;7.50;;;2.70;;
75535;SDS011;64119;52.070;20.804;2023-05-10T05:15:52;5.60;;;3.10;;
75535;SDS011;64119;52.070;20.804;2023-05-10T05:18:20;6.20;;;2.60;;
75535;SDS011;64119;52.070;20.804;2023-05-10T05:20:48;6.90;;;3.20;;
75535;SDS011;64119;52.070;20.804;2023-05-10T05:23:16;4.30;;;2.80;;
75535;SDS011;64119;52.070;20.804;2023-05-10T05:25:44;5.90;;;3.00;;
75535;SDS011;64119;52.070;20.804;2023-05-10T05:28:12;5.70;;;2.50;;
75535;SDS011;64119;52.070;20.804;2023-05-10T05:30:39;4.70;;;2.60;;
75535;SDS011;64119;52.070;20.804;2023-05-10T05:33:07;5.40;;;2.60;;
75535;SDS011;64119;52.070;20.804;2023-05-10T05:35:35;5.60;;;2.50;;
75535;SDS011;64119;52.070;20.804;2023-05-10T05:38:03;4.30;;;2.70;;
75535;SDS011;64119;52.070;20.804;2023-05-10T05:40:30;4.00;;;2.40;;
75535;SDS011;64119;52.070;20.804;2023-05-10T05:42:58;3.80;;;2.50;;
75535;SDS011;64119;52.070;20.804;2023-05-10T05:45:26;6.90;;;3.50;;
75535;SDS011;64119;52.070;20.804;2023-05-10T05:47:54;6.50;;;2.90;;
75535;SDS011;64119;52.070;20.804;2023-05-10T05:50:22;6.60;;;3.10;;
75535;SDS011;64119;52.070;20.804;2023-05-10T05:52:50;4.40;;;2.80;;
75535;SDS011;64119;52.070;20.804;2023-05-10T05:55:18;6.10;;;3.20;;
75535;SDS011;64119;52.070;20.804;2023-05-10T05:57:46;4.90;;;3.00;;
75535;SDS011;64119;52.070;20.804;2023-05-10T06:00:14;3.60;;;2.50;;
75535;SDS011;64119;52.070;20.804;2023-05-10T06:02:42;4.10;;;2.60;;
75535;SDS011;64119;52.070;20.804;2023-05-10T06:05:10;6.50;;;2.60;;
75535;SDS011;64119;52.070;20.804;2023-05-10T06:07:38;5.70;;;2.40;;
75535;SDS011;64119;52.070;20.804;2023-05-10T06:10:09;4.40;;;2.10;;
75535;SDS011;64119;52.070;20.804;2023-05-10T06:12:37;3.50;;;2.50;;
75535;SDS011;64119;52.070;20.804;2023-05-10T06:15:05;5.90;;;2.00;;
75535;SDS011;64119;52.070;20.804;2023-05-10T06:17:33;3.60;;;2.50;;
75535;SDS011;64119;52.070;20.804;2023-05-10T06:20:01;3.80;;;2.00;;
75535;SDS011;64119;52.070;20.804;2023-05-10T06:22:29;3.00;;;2.10;;
75535;SDS011;64119;52.070;20.804;2023-05-10T06:24:56;5.80;;;2.10;;
75535;SDS011;64119;52.070;20.804;2023-05-10T06:27:24;4.10;;;2.40;;
75535;SDS011;64119;52.070;20.804;2023-05-10T06:29:52;3.00;;;2.00;;
75535;SDS011;64119;52.070;20.804;2023-05-10T06:32:35;4.60;;;2.40;;
75535;SDS011;64119;52.070;20.804;2023-05-10T06:35:03;4.40;;;2.00;;
75535;SDS011;64119;52.070;20.804;2023-05-10T06:37:31;3.20;;;1.90;;
75535;SDS011;64119;52.070;20.804;2023-05-10T06:39:59;4.30;;;2.20;;
75535;SDS011;64119;52.070;20.804;2023-05-10T06:42:27;6.40;;;2.10;;
75535;SDS011;64119;52.070;20.804;2023-05-10T06:44:54;3.80;;;1.80;;
75535;SDS011;64119;52.070;20.804;2023-05-10T06:47:22;2.70;;;1.60;;
75535;SDS011;64119;52.070;20.804;2023-05-10T06:49:50;2.80;;;1.80;;
75535;SDS011;64119;52.070;20.804;2023-05-10T06:52:18;5.70;;;2.20;;
75535;SDS011;64119;52.070;20.804;2023-05-10T06:54:46;4.10;;;1.70;;
75535;SDS011;64119;52.070;20.804;2023-05-10T06:57:13;4.20;;;2.30;;
75535;SDS011;64119;52.070;20.804;2023-05-10T06:59:58;6.00;;;2.10;;
75535;SDS011;64119;52.070;20.804;2023-05-10T07:02:26;2.50;;;1.70;;
75535;SDS011;64119;52.070;20.804;2023-05-10T07:04:54;3.10;;;1.80;;
75535;SDS011;64119;52.070;20.804;2023-05-10T07:07:22;4.90;;;1.80;;
75535;SDS011;64119;52.070;20.804;2023-05-10T07:09:49;2.80;;;1.80;;
75535;SDS011;64119;52.070;20.804;2023-05-10T07:12:19;4.50;;;2.00;;
75535;SDS011;64119;52.070;20.804;2023-05-10T07:14:47;2.60;;;1.50;;
75535;SDS011;64119;52.070;20.804;2023-05-10T07:17:14;2.50;;;1.60;;
75535;SDS011;64119;52.070;20.804;2023-05-10T07:19:43;2.90;;;1.40;;
75535;SDS011;64119;52.070;20.804;2023-05-10T07:22:11;3.80;;;1.70;;
75535;SDS011;64119;52.070;20.804;2023-05-10T07:24:38;6.20;;;2.00;;
75535;SDS011;64119;52.070;20.804;2023-05-10T07:27:06;3.30;;;2.00;;
75535;SDS011;64119;52.070;20.804;2023-05-10T07:29:34;4.10;;;1.70;;
75535;SDS011;64119;52.070;20.804;2023-05-10T07:32:03;2.80;;;1.80;;
75535;SDS011;64119;52.070;20.804;2023-05-10T07:34:31;3.10;;;1.50;;
75535;SDS011;64119;52.070;20.804;2023-05-10T07:36:59;3.50;;;1.50;;
75535;SDS011;64119;52.070;20.804;2023-05-10T07:39:27;2.80;;;1.50;;
75535;SDS011;64119;52.070;20.804;2023-05-10T07:41:55;4.50;;;1.40;;
75535;SDS011;64119;52.070;20.804;2023-05-10T07:44:23;1.50;;;1.00;;
75535;SDS011;64119;52.070;20.804;2023-05-10T07:46:51;2.10;;;1.50;;
75535;SDS011;64119;52.070;20.804;2023-05-10T07:49:19;5.10;;;1.50;;
75535;SDS011;64119;52.070;20.804;2023-05-10T07:51:47;3.10;;;1.30;;
75535;SDS011;64119;52.070;20.804;2023-05-10T07:54:16;5.10;;;1.40;;
75535;SDS011;64119;52.070;20.804;2023-05-10T07:56:44;2.30;;;1.40;;
75535;SDS011;64119;52.070;20.804;2023-05-10T07:59:15;3.50;;;1.30;;
75535;SDS011;64119;52.070;20.804;2023-05-10T08:01:44;2.50;;;1.10;;
75535;SDS011;64119;52.070;20.804;2023-05-10T08:04:12;3.30;;;1.30;;
75535;SDS011;64119;52.070;20.804;2023-05-10T08:06:40;3.20;;;1.30;;
75535;SDS011;64119;52.070;20.804;2023-05-10T08:09:08;2.20;;;1.30;;
75535;SDS011;64119;52.070;20.804;2023-05-10T08:11:36;2.00;;;1.30;;
75535;SDS011;64119;52.070;20.804;2023-05-10T08:14:04;3.90;;;1.30;;
75535;SDS011;64119;52.070;20.804;2023-05-10T08:16:32;4.30;;;1.30;;
75535;SDS011;64119;52.070;20.804;2023-05-10T08:19:00;1.80;;;1.20;;
75535;SDS011;64119;52.070;20.804;2023-05-10T08:21:27;3.50;;;1.50;;
75535;SDS011;64119;52.070;20.804;2023-05-10T08:23:55;4.80;;;1.20;;
75535;SDS011;64119;52.070;20.804;2023-05-10T08:26:23;2.10;;;1.40;;
75535;SDS011;64119;52.070;20.804;2023-05-10T08:28:51;3.30;;;1.30;;
75535;SDS011;64119;52.070;20.804;2023-05-10T08:31:19;3.30;;;1.50;;
75535;SDS011;64119;52.070;20.804;2023-05-10T08:33:47;3.90;;;1.80;;
75535;SDS011;64119;52.070;20.804;2023-05-10T08:36:15;3.30;;;1.50;;
75535;SDS011;64119;52.070;20.804;2023-05-10T08:38:49;1.20;;;1.00;;
75535;SDS011;64119;52.070;20.804;2023-05-10T08:41:20;2.30;;;1.50;;
75535;SDS011;64119;52.070;20.804;2023-05-10T08:43:51;2.00;;;1.20;;
75535;SDS011;64119;52.070;20.804;2023-05-10T08:46:21;3.70;;;1.70;;
75535;SDS011;64119;52.070;20.804;2023-05-10T08:51:19;3.10;;;1.70;;
75535;SDS011;64119;52.070;20.804;2023-05-10T08:53:51;2.60;;;1.20;;
75535;SDS011;64119;52.070;20.804;2023-05-10T08:56:18;4.10;;;1.40;;
75535;SDS011;64119;52.070;20.804;2023-05-10T08:58:48;2.80;;;1.50;;
75535;SDS011;64119;52.070;20.804;2023-05-10T09:01:17;3.10;;;1.10;;
75535;SDS011;64119;52.070;20.804;2023-05-10T09:03:46;2.80;;;1.40;;
75535;SDS011;64119;52.070;20.804;2023-05-10T09:06:15;3.00;;;1.60;;
75535;SDS011;64119;52.070;20.804;2023-05-10T09:08:43;1.80;;;1.20;;
75535;SDS011;64119;52.070;20.804;2023-05-10T09:11:13;3.00;;;1.40;;
75535;SDS011;64119;52.070;20.804;2023-05-10T09:13:42;6.00;;;2.00;;
75535;SDS011;64119;52.070;20.804;2023-05-10T09:16:11;2.80;;;1.70;;
75535;SDS011;64119;52.070;20.804;2023-05-10T09:18:48;2.50;;;1.20;;
75535;SDS011;64119;52.070;20.804;2023-05-10T09:21:17;2.50;;;1.20;;
75535;SDS011;64119;52.070;20.804;2023-05-10T09:23:45;3.80;;;1.50;;
75535;SDS011;64119;52.070;20.804;2023-05-10T09:26:15;1.90;;;1.30;;
75535;SDS011;64119;52.070;20.804;2023-05-10T09:28:53;3.40;;;1.50;;
75535;SDS011;64119;52.070;20.804;2023-05-10T09:31:22;2.20;;;1.40;;
75535;SDS011;64119;52.070;20.804;2023-05-10T09:33:52;4.10;;;1.30;;
75535;SDS011;64119;52.070;20.804;2023-05-10T09:36:20;3.70;;;2.40;;
75535;SDS011;64119;52.070;20.804;2023-05-10T09:38:48;2.90;;;1.50;;
75535;SDS011;64119;52.070;20.804;2023-05-10T09:41:20;3.90;;;1.30;;
75535;SDS011;64119;52.070;20.804;2023-05-10T09:43:49;2.90;;;1.70;;
75535;SDS011;64119;52.070;20.804;2023-05-10T09:46:17;4.50;;;1.40;;
75535;SDS011;64119;52.070;20.804;2023-05-10T09:48:46;4.00;;;1.70;;
75535;SDS011;64119;52.070;20.804;2023-05-10T09:51:23;4.80;;;1.40;;
75535;SDS011;64119;52.070;20.804;2023-05-10T09:56:36;3.40;;;1.50;;
75535;SDS011;64119;52.070;20.804;2023-05-10T09:59:11;2.30;;;1.60;;
75535;SDS011;64119;52.070;20.804;2023-05-10T10:01:40;2.20;;;1.20;;
75535;SDS011;64119;52.070;20.804;2023-05-10T10:04:09;2.10;;;1.50;;
75535;SDS011;64119;52.070;20.804;2023-05-10T10:06:40;1.60;;;1.20;;
75535;SDS011;64119;52.070;20.804;2023-05-10T10:09:08;2.30;;;1.20;;
75535;SDS011;64119;52.070;20.804;2023-05-10T10:11:38;2.80;;;1.30;;
75535;SDS011;64119;52.070;20.804;2023-05-10T10:14:06;2.20;;;1.20;;
75535;SDS011;64119;52.070;20.804;2023-05-10T10:16:33;3.10;;;1.70;;
75535;SDS011;64119;52.070;20.804;2023-05-10T10:19:02;3.00;;;1.60;;
75535;SDS011;64119;52.070;20.804;2023-05-10T10:21:30;3.40;;;1.70;;
75535;SDS011;64119;52.070;20.804;2023-05-10T10:23:58;3.60;;;1.70;;
75535;SDS011;64119;52.070;20.804;2023-05-10T10:26:26;4.10;;;1.90;;
75535;SDS011;64119;52.070;20.804;2023-05-10T10:32:09;3.00;;;1.60;;
75535;SDS011;64119;52.070;20.804;2023-05-10T10:34:53;3.60;;;1.70;;
75535;SDS011;64119;52.070;20.804;2023-05-10T10:37:23;6.30;;;1.50;;
75535;SDS011;64119;52.070;20.804;2023-05-10T10:40:07;2.30;;;1.40;;
75535;SDS011;64119;52.070;20.804;2023-05-10T10:48:49;4.00;;;1.60;;
75535;SDS011;64119;52.070;20.804;2023-05-10T10:51:19;4.50;;;1.60;;
75535;SDS011;64119;52.070;20.804;2023-05-10T10:53:47;1.90;;;1.10;;
75535;SDS011;64119;52.070;20.804;2023-05-10T10:56:15;2.90;;;1.40;;
75535;SDS011;64119;52.070;20.804;2023-05-10T10:58:51;3.90;;;1.80;;
75535;SDS011;64119;52.070;20.804;2023-05-10T11:01:20;3.10;;;1.50;;
75535;SDS011;64119;52.070;20.804;2023-05-10T11:04:17;4.00;;;1.40;;
75535;SDS011;64119;52.070;20.804;2023-05-10T11:06:44;6.30;;;2.20;;
75535;SDS011;64119;52.070;20.804;2023-05-10T11:09:12;2.20;;;1.30;;
75535;SDS011;64119;52.070;20.804;2023-05-10T11:11:53;2.20;;;1.40;;
75535;SDS011;64119;52.070;20.804;2023-05-10T11:14:26;2.50;;;1.70;;
75535;SDS011;64119;52.070;20.804;2023-05-10T11:16:53;2.80;;;1.30;;
75535;SDS011;64119;52.070;20.804;2023-05-10T11:19:21;2.30;;;1.20;;
75535;SDS011;64119;52.070;20.804;2023-05-10T11:24:31;4.10;;;1.20;;
75535;SDS011;64119;52.070;20.804;2023-05-10T11:29:28;2.30;;;1.40;;
75535;SDS011;64119;52.070;20.804;2023-05-10T11:31:56;3.10;;;1.30;;
75535;SDS011;64119;52.070;20.804;2023-05-10T11:34:29;3.00;;;1.40;;
75535;SDS011;64119;52.070;20.804;2023-05-10T11:37:00;4.80;;;1.40;;
75535;SDS011;64119;52.070;20.804;2023-05-10T11:39:29;2.00;;;1.30;;
75535;SDS011;64119;52.070;20.804;2023-05-10T11:41:59;4.30;;;1.60;;
75535;SDS011;64119;52.070;20.804;2023-05-10T11:44:30;3.10;;;1.60;;
75535;SDS011;64119;52.070;20.804;2023-05-10T11:47:00;4.00;;;1.30;;
75535;SDS011;64119;52.070;20.804;2023-05-10T11:49:29;6.90;;;1.30;;
75535;SDS011;64119;52.070;20.804;2023-05-10T11:52:06;3.70;;;1.40;;
75535;SDS011;64119;52.070;20.804;2023-05-10T11:54:35;2.80;;;1.60;;
75535;SDS011;64119;52.070;20.804;2023-05-10T11:57:03;2.40;;;1.30;;
75535;SDS011;64119;52.070;20.804;2023-05-10T11:59:31;2.50;;;1.40;;
75535;SDS011;64119;52.070;20.804;2023-05-10T12:01:59;19.50;;;7.00;;
75535;SDS011;64119;52.070;20.804;2023-05-10T12:04:27;5.70;;;1.60;;
75535;SDS011;64119;52.070;20.804;2023-05-10T12:06:57;4.20;;;1.80;;
75535;SDS011;64119;52.070;20.804;2023-05-10T12:09:25;2.30;;;1.30;;
75535;SDS011;64119;52.070;20.804;2023-05-10T12:12:09;3.10;;;1.40;;
75535;SDS011;64119;52.070;20.804;2023-05-10T12:14:38;2.60;;;1.60;;
75535;SDS011;64119;52.070;20.804;2023-05-10T12:17:05;3.70;;;1.40;;
75535;SDS011;64119;52.070;20.804;2023-05-10T12:19:36;2.10;;;1.50;;
75535;SDS011;64119;52.070;20.804;2023-05-10T12:22:08;4.70;;;1.60;;
75535;SDS011;64119;52.070;20.804;2023-05-10T12:24:36;4.30;;;1.90;;
75535;SDS011;64119;52.070;20.804;2023-05-10T12:27:05;4.80;;;1.60;;
75535;SDS011;64119;52.070;20.804;2023-05-10T12:29:35;3.40;;;1.50;;
75535;SDS011;64119;52.070;20.804;2023-05-10T12:32:03;3.20;;;1.70;;
75535;SDS011;64119;52.070;20.804;2023-05-10T12:34:32;4.70;;;1.80;;
75535;SDS011;64119;52.070;20.804;2023-05-10T12:37:02;3.40;;;1.50;;
75535;SDS011;64119;52.070;20.804;2023-05-10T12:42:09;3.20;;;1.20;;
75535;SDS011;64119;52.070;20.804;2023-05-10T12:44:37;2.50;;;1.60;;
75535;SDS011;64119;52.070;20.804;2023-05-10T12:47:05;2.40;;;1.30;;
75535;SDS011;64119;52.070;20.804;2023-05-10T12:49:33;2.30;;;1.20;;
75535;SDS011;64119;52.070;20.804;2023-05-10T12:52:02;2.60;;;1.70;;
75535;SDS011;64119;52.070;20.804;2023-05-10T12:54:30;2.10;;;1.20;;
75535;SDS011;64119;52.070;20.804;2023-05-10T12:56:57;2.10;;;1.30;;
75535;SDS011;64119;52.070;20.804;2023-05-10T12:59:25;4.20;;;1.40;;
75535;SDS011;64119;52.070;20.804;2023-05-10T13:01:53;2.30;;;1.50;;
75535;SDS011;64119;52.070;20.804;2023-05-10T13:04:22;3.00;;;1.70;;
75535;SDS011;64119;52.070;20.804;2023-05-10T13:06:50;2.60;;;1.30;;
75535;SDS011;64119;52.070;20.804;2023-05-10T13:09:18;1.80;;;1.20;;
75535;SDS011;64119;52.070;20.804;2023-05-10T13:11:46;3.70;;;1.90;;
75535;SDS011;64119;52.070;20.804;2023-05-10T13:19:10;3.70;;;1.40;;
75535;SDS011;64119;52.070;20.804;2023-05-10T13:21:39;3.10;;;1.40;;
75535;SDS011;64119;52.070;20.804;2023-05-10T13:24:10;2.00;;;1.40;;
75535;SDS011;64119;52.070;20.804;2023-05-10T13:26:40;2.50;;;1.50;;
75535;SDS011;64119;52.070;20.804;2023-05-10T13:29:08;4.90;;;1.80;;
75535;SDS011;64119;52.070;20.804;2023-05-10T13:31:36;3.40;;;1.40;;
75535;SDS011;64119;52.070;20.804;2023-05-10T13:34:04;4.50;;;1.80;;
75535;SDS011;64119;52.070;20.804;2023-05-10T13:39:01;2.90;;;1.30;;
75535;SDS011;64119;52.070;20.804;2023-05-10T13:41:30;2.50;;;1.60;;
75535;SDS011;64119;52.070;20.804;2023-05-10T13:43:58;4.40;;;1.50;;
75535;SDS011;64119;52.070;20.804;2023-05-10T13:46:26;5.30;;;1.70;;
75535;SDS011;64119;52.070;20.804;2023-05-10T13:48:54;3.30;;;1.40;;
75535;SDS011;64119;52.070;20.804;2023-05-10T13:51:22;3.80;;;1.60;;
75535;SDS011;64119;52.070;20.804;2023-05-10T13:53:50;5.40;;;1.60;;
75535;SDS011;64119;52.070;20.804;2023-05-10T13:56:18;2.70;;;1.60;;
75535;SDS011;64119;52.070;20.804;2023-05-10T13:58:45;2.40;;;1.50;;
75535;SDS011;64119;52.070;20.804;2023-05-10T14:01:13;4.20;;;1.60;;
75535;SDS011;64119;52.070;20.804;2023-05-10T14:03:41;2.40;;;1.40;;
75535;SDS011;64119;52.070;20.804;2023-05-10T14:06:09;6.50;;;1.50;;
75535;SDS011;64119;52.070;20.804;2023-05-10T14:08:37;2.50;;;1.20;;
75535;SDS011;64119;52.070;20.804;2023-05-10T14:11:05;3.00;;;1.50;;
75535;SDS011;64119;52.070;20.804;2023-05-10T14:13:33;3.60;;;1.20;;
75535;SDS011;64119;52.070;20.804;2023-05-10T14:16:01;3.10;;;1.30;;
75535;SDS011;64119;52.070;20.804;2023-05-10T14:18:29;2.70;;;1.40;;
75535;SDS011;64119;52.070;20.804;2023-05-10T14:20:57;1.20;;;0.90;;
75535;SDS011;64119;52.070;20.804;2023-05-10T14:23:24;2.20;;;1.30;;
75535;SDS011;64119;52.070;20.804;2023-05-10T14:25:53;3.50;;;1.30;;
75535;SDS011;64119;52.070;20.804;2023-05-10T14:28:21;2.20;;;1.30;;
75535;SDS011;64119;52.070;20.804;2023-05-10T14:30:50;3.40;;;1.40;;
75535;SDS011;64119;52.070;20.804;2023-05-10T14:33:18;2.80;;;1.50;;
75535;SDS011;64119;52.070;20.804;2023-05-10T14:35:45;3.30;;;1.40;;
75535;SDS011;64119;52.070;20.804;2023-05-10T14:38:14;2.20;;;1.40;;
75535;SDS011;64119;52.070;20.804;2023-05-10T14:40:42;2.30;;;1.00;;
75535;SDS011;64119;52.070;20.804;2023-05-10T14:43:10;2.40;;;1.20;;
75535;SDS011;64119;52.070;20.804;2023-05-10T14:45:38;3.70;;;1.40;;
75535;SDS011;64119;52.070;20.804;2023-05-10T14:48:06;3.50;;;1.60;;
75535;SDS011;64119;52.070;20.804;2023-05-10T14:50:34;2.40;;;1.30;;
75535;SDS011;64119;52.070;20.804;2023-05-10T14:53:04;2.70;;;1.60;;
75535;SDS011;64119;52.070;20.804;2023-05-10T14:55:32;2.30;;;1.20;;
75535;SDS011;64119;52.070;20.804;2023-05-10T14:58:01;3.60;;;1.50;;
75535;SDS011;64119;52.070;20.804;2023-05-10T15:00:30;2.90;;;1.20;;
75535;SDS011;64119;52.070;20.804;2023-05-10T15:02:58;4.00;;;1.60;;
75535;SDS011;64119;52.070;20.804;2023-05-10T15:05:26;1.40;;;1.00;;
75535;SDS011;64119;52.070;20.804;2023-05-10T15:07:55;2.70;;;1.20;;
75535;SDS011;64119;52.070;20.804;2023-05-10T15:10:23;2.80;;;1.30;;
75535;SDS011;64119;52.070;20.804;2023-05-10T15:12:51;3.30;;;1.50;;
75535;SDS011;64119;52.070;20.804;2023-05-10T15:15:18;4.60;;;1.60;;
75535;SDS011;64119;52.070;20.804;2023-05-10T15:17:47;1.70;;;1.10;;
75535;SDS011;64119;52.070;20.804;2023-05-10T15:20:15;2.80;;;1.70;;
75535;SDS011;64119;52.070;20.804;2023-05-10T15:22:43;2.80;;;1.40;;
75535;SDS011;64119;52.070;20.804;2023-05-10T15:25:11;2.40;;;1.50;;
75535;SDS011;64119;52.070;20.804;2023-05-10T15:27:38;2.10;;;1.00;;
75535;SDS011;64119;52.070;20.804;2023-05-10T15:30:07;3.30;;;1.40;;
75535;SDS011;64119;52.070;20.804;2023-05-10T15:32:35;1.90;;;1.20;;
75535;SDS011;64119;52.070;20.804;2023-05-10T15:35:04;3.10;;;1.30;;
75535;SDS011;64119;52.070;20.804;2023-05-10T15:37:32;2.80;;;1.30;;
75535;SDS011;64119;52.070;20.804;2023-05-10T15:40:00;3.00;;;1.50;;
75535;SDS011;64119;52.070;20.804;2023-05-10T15:42:31;2.40;;;1.20;;
75535;SDS011;64119;52.070;20.804;2023-05-10T15:44:59;2.80;;;1.70;;
75535;SDS011;64119;52.070;20.804;2023-05-10T15:47:29;3.10;;;1.50;;